sensor_id;sensor_type;location;lat;lon;timestamp;P1;durP1;ratioP1;P2;durP2;ratioP2
67902;SDS011;54708;43.612;1.568;2023-01-10T00:02:09;23.15;;;4.78;;
67902;SDS011;54708;43.612;1.568;2023-01-10T00:04:34;24.75;;;4.80;;
67902;SDS011;54708;43.612;1.568;2023-01-10T00:06:59;23.27;;;5.40;;
67902;SDS011;54708;43.612;1.568;2023-01-10T00:09:25;26.85;;;4.95;;
67902;SDS011;54708;43.612;1.568;2023-01-10T00:11:50;21.63;;;4.22;;
67902;SDS011;54708;43.612;1.568;2023-01-10T00:14:34;21.05;;;4.78;;
67902;SDS011;54708;43.612;1.568;2023-01-10T00:17:03;18.05;;;6.18;;
67902;SDS011;54708;43.612;1.568;2023-01-10T00:19:29;26.50;;;6.65;;
67902;SDS011;54708;43.612;1.568;2023-01-10T00:21:54;17.73;;;4.80;;
67902;SDS011;54708;43.612;1.568;2023-01-10T00:24:21;22.38;;;5.95;;
67902;SDS011;54708;43.612;1.568;2023-01-10T00:26:48;32.15;;;7.53;;
67902;SDS011;54708;43.612;1.568;2023-01-10T00:29:23;18.27;;;5.97;;
67902;SDS011;54708;43.612;1.568;2023-01-10T00:31:51;25.15;;;6.03;;
67902;SDS011;54708;43.612;1.568;2023-01-10T00:34:17;17.77;;;4.78;;
67902;SDS011;54708;43.612;1.568;2023-01-10T00:36:43;22.70;;;6.82;;
67902;SDS011;54708;43.612;1.568;2023-01-10T00:39:11;25.50;;;6.68;;
67902;SDS011;54708;43.612;1.568;2023-01-10T00:41:36;16.38;;;4.95;;
67902;SDS011;54708;43.612;1.568;2023-01-10T00:44:21;19.00;;;4.93;;
67902;SDS011;54708;43.612;1.568;2023-01-10T00:46:46;18.23;;;6.15;;
67902;SDS011;54708;43.612;1.568;2023-01-10T00:49:12;20.42;;;4.82;;
67902;SDS011;54708;43.612;1.568;2023-01-10T00:51:40;20.25;;;3.88;;
67902;SDS011;54708;43.612;1.568;2023-01-10T00:54:07;19.40;;;4.82;;
67902;SDS011;54708;43.612;1.568;2023-01-10T00:56:33;22.27;;;5.40;;
67902;SDS011;54708;43.612;1.568;2023-01-10T00:58:58;19.05;;;5.70;;
67902;SDS011;54708;43.612;1.568;2023-01-10T01:01:24;22.35;;;5.03;;
67902;SDS011;54708;43.612;1.568;2023-01-10T01:03:49;23.95;;;5.70;;
67902;SDS011;54708;43.612;1.568;2023-01-10T01:06:14;23.95;;;6.78;;
67902;SDS011;54708;43.612;1.568;2023-01-10T01:08:40;18.88;;;6.35;;
67902;SDS011;54708;43.612;1.568;2023-01-10T01:11:05;15.80;;;5.63;;
67902;SDS011;54708;43.612;1.568;2023-01-10T01:13:31;21.27;;;4.82;;
67902;SDS011;54708;43.612;1.568;2023-01-10T01:15:56;22.88;;;3.92;;
67902;SDS011;54708;43.612;1.568;2023-01-10T01:18:23;19.95;;;6.13;;
67902;SDS011;54708;43.612;1.568;2023-01-10T01:20:51;20.05;;;4.57;;
67902;SDS011;54708;43.612;1.568;2023-01-10T01:23:18;19.55;;;5.40;;
67902;SDS011;54708;43.612;1.568;2023-01-10T01:25:43;18.40;;;4.30;;
67902;SDS011;54708;43.612;1.568;2023-01-10T01:28:11;22.95;;;5.55;;
67902;SDS011;54708;43.612;1.568;2023-01-10T01:30:36;23.80;;;6.45;;
67902;SDS011;54708;43.612;1.568;2023-01-10T01:33:02;20.60;;;5.18;;
67902;SDS011;54708;43.612;1.568;2023-01-10T01:35:28;30.80;;;5.35;;
67902;SDS011;54708;43.612;1.568;2023-01-10T01:37:53;23.58;;;6.30;;
67902;SDS011;54708;43.612;1.568;2023-01-10T01:40:19;27.27;;;6.82;;
67902;SDS011;54708;43.612;1.568;2023-01-10T01:42:46;23.45;;;6.05;;
67902;SDS011;54708;43.612;1.568;2023-01-10T01:47:54;24.60;;;4.80;;
67902;SDS011;54708;43.612;1.568;2023-01-10T01:51:03;16.67;;;5.82;;
67902;SDS011;54708;43.612;1.568;2023-01-10T01:53:24;17.58;;;5.35;;
67902;SDS011;54708;43.612;1.568;2023-01-10T01:55:53;18.15;;;4.18;;
67902;SDS011;54708;43.612;1.568;2023-01-10T01:58:24;22.40;;;5.45;;
67902;SDS011;54708;43.612;1.568;2023-01-10T02:00:53;27.92;;;6.15;;
67902;SDS011;54708;43.612;1.568;2023-01-10T02:03:19;14.60;;;4.65;;
67902;SDS011;54708;43.612;1.568;2023-01-10T02:05:44;22.02;;;5.75;;
67902;SDS011;54708;43.612;1.568;2023-01-10T02:08:10;24.35;;;6.43;;
67902;SDS011;54708;43.612;1.568;2023-01-10T02:13:08;25.75;;;5.50;;
67902;SDS011;54708;43.612;1.568;2023-01-10T02:15:35;29.48;;;5.30;;
67902;SDS011;54708;43.612;1.568;2023-01-10T02:18:01;19.13;;;4.78;;
67902;SDS011;54708;43.612;1.568;2023-01-10T02:20:27;18.05;;;5.03;;
67902;SDS011;54708;43.612;1.568;2023-01-10T02:39:54;25.83;;;6.65;;
67902;SDS011;54708;43.612;1.568;2023-01-10T02:42:22;23.45;;;5.68;;
67902;SDS011;54708;43.612;1.568;2023-01-10T02:45:16;32.65;;;6.85;;
67902;SDS011;54708;43.612;1.568;2023-01-10T02:47:45;25.95;;;5.40;;
67902;SDS011;54708;43.612;1.568;2023-01-10T02:53:17;19.45;;;6.07;;
67902;SDS011;54708;43.612;1.568;2023-01-10T02:55:58;22.30;;;4.55;;
67902;SDS011;54708;43.612;1.568;2023-01-10T03:01:03;23.63;;;4.65;;
67902;SDS011;54708;43.612;1.568;2023-01-10T03:03:38;25.63;;;6.82;;
67902;SDS011;54708;43.612;1.568;2023-01-10T03:06:14;45.35;;;6.32;;
67902;SDS011;54708;43.612;1.568;2023-01-10T03:09:01;18.90;;;5.38;;
67902;SDS011;54708;43.612;1.568;2023-01-10T03:11:46;25.77;;;5.40;;
67902;SDS011;54708;43.612;1.568;2023-01-10T03:14:15;25.63;;;4.85;;
67902;SDS011;54708;43.612;1.568;2023-01-10T03:16:46;19.48;;;4.60;;
67902;SDS011;54708;43.612;1.568;2023-01-10T03:19:16;33.80;;;6.20;;
67902;SDS011;54708;43.612;1.568;2023-01-10T03:21:46;29.40;;;6.47;;
67902;SDS011;54708;43.612;1.568;2023-01-10T03:24:18;25.63;;;6.45;;
67902;SDS011;54708;43.612;1.568;2023-01-10T03:29:30;25.33;;;5.50;;
67902;SDS011;54708;43.612;1.568;2023-01-10T03:32:02;25.45;;;5.40;;
67902;SDS011;54708;43.612;1.568;2023-01-10T03:34:29;18.85;;;5.45;;
67902;SDS011;54708;43.612;1.568;2023-01-10T03:37:00;26.13;;;5.55;;
67902;SDS011;54708;43.612;1.568;2023-01-10T03:39:33;33.55;;;5.28;;
67902;SDS011;54708;43.612;1.568;2023-01-10T03:47:41;23.27;;;5.35;;
67902;SDS011;54708;43.612;1.568;2023-01-10T03:50:19;27.17;;;5.53;;
67902;SDS011;54708;43.612;1.568;2023-01-10T03:52:45;18.52;;;5.40;;
67902;SDS011;54708;43.612;1.568;2023-01-10T03:55:13;26.33;;;5.63;;
67902;SDS011;54708;43.612;1.568;2023-01-10T03:57:41;35.03;;;5.80;;
67902;SDS011;54708;43.612;1.568;2023-01-10T04:00:07;24.58;;;5.82;;
67902;SDS011;54708;43.612;1.568;2023-01-10T04:02:33;19.23;;;5.25;;
67902;SDS011;54708;43.612;1.568;2023-01-10T04:04:58;27.42;;;5.68;;
67902;SDS011;54708;43.612;1.568;2023-01-10T04:07:24;29.73;;;5.35;;
67902;SDS011;54708;43.612;1.568;2023-01-10T04:09:50;16.65;;;4.90;;
67902;SDS011;54708;43.612;1.568;2023-01-10T04:12:15;23.95;;;6.32;;
67902;SDS011;54708;43.612;1.568;2023-01-10T04:14:41;19.30;;;5.97;;
67902;SDS011;54708;43.612;1.568;2023-01-10T04:17:06;15.93;;;4.13;;
67902;SDS011;54708;43.612;1.568;2023-01-10T04:19:32;22.45;;;6.03;;
67902;SDS011;54708;43.612;1.568;2023-01-10T04:21:57;31.15;;;7.43;;
67902;SDS011;54708;43.612;1.568;2023-01-10T04:24:23;33.55;;;7.43;;
67902;SDS011;54708;43.612;1.568;2023-01-10T04:26:48;26.15;;;5.53;;
67902;SDS011;54708;43.612;1.568;2023-01-10T04:29:13;33.72;;;9.80;;
67902;SDS011;54708;43.612;1.568;2023-01-10T04:31:40;38.20;;;11.63;;
67902;SDS011;54708;43.612;1.568;2023-01-10T04:34:06;33.95;;;10.93;;
67902;SDS011;54708;43.612;1.568;2023-01-10T04:36:32;22.27;;;7.32;;
67902;SDS011;54708;43.612;1.568;2023-01-10T04:38:57;23.30;;;6.40;;
67902;SDS011;54708;43.612;1.568;2023-01-10T04:41:23;21.40;;;6.13;;
67902;SDS011;54708;43.612;1.568;2023-01-10T04:43:48;34.03;;;8.15;;
67902;SDS011;54708;43.612;1.568;2023-01-10T04:46:14;26.80;;;8.48;;
67902;SDS011;54708;43.612;1.568;2023-01-10T04:48:39;26.05;;;10.15;;
67902;SDS011;54708;43.612;1.568;2023-01-10T04:51:04;21.63;;;7.45;;
67902;SDS011;54708;43.612;1.568;2023-01-10T04:53:30;20.88;;;5.03;;
67902;SDS011;54708;43.612;1.568;2023-01-10T04:56:00;20.83;;;4.70;;
67902;SDS011;54708;43.612;1.568;2023-01-10T04:58:27;25.50;;;6.10;;
67902;SDS011;54708;43.612;1.568;2023-01-10T05:00:53;18.67;;;4.78;;
67902;SDS011;54708;43.612;1.568;2023-01-10T05:03:18;21.52;;;7.32;;
67902;SDS011;54708;43.612;1.568;2023-01-10T05:05:44;13.20;;;4.47;;
67902;SDS011;54708;43.612;1.568;2023-01-10T05:08:09;18.45;;;4.13;;
67902;SDS011;54708;43.612;1.568;2023-01-10T05:10:35;15.73;;;5.07;;
67902;SDS011;54708;43.612;1.568;2023-01-10T05:13:00;16.02;;;4.20;;
67902;SDS011;54708;43.612;1.568;2023-01-10T05:15:25;17.50;;;4.55;;
67902;SDS011;54708;43.612;1.568;2023-01-10T05:17:56;13.77;;;3.88;;
67902;SDS011;54708;43.612;1.568;2023-01-10T05:20:23;10.45;;;3.42;;
67902;SDS011;54708;43.612;1.568;2023-01-10T05:22:48;14.57;;;3.92;;
67902;SDS011;54708;43.612;1.568;2023-01-10T05:25:13;20.48;;;5.63;;
67902;SDS011;54708;43.612;1.568;2023-01-10T05:27:40;17.60;;;4.70;;
67902;SDS011;54708;43.612;1.568;2023-01-10T05:30:08;24.25;;;6.28;;
67902;SDS011;54708;43.612;1.568;2023-01-10T05:32:35;14.85;;;3.85;;
67902;SDS011;54708;43.612;1.568;2023-01-10T05:35:00;17.60;;;5.13;;
67902;SDS011;54708;43.612;1.568;2023-01-10T05:37:26;14.45;;;4.43;;
67902;SDS011;54708;43.612;1.568;2023-01-10T05:39:51;21.67;;;5.72;;
67902;SDS011;54708;43.612;1.568;2023-01-10T05:42:17;18.45;;;4.00;;
67902;SDS011;54708;43.612;1.568;2023-01-10T05:44:42;17.60;;;5.10;;
67902;SDS011;54708;43.612;1.568;2023-01-10T05:47:08;25.27;;;5.32;;
67902;SDS011;54708;43.612;1.568;2023-01-10T05:49:33;28.83;;;4.93;;
67902;SDS011;54708;43.612;1.568;2023-01-10T05:51:58;19.30;;;4.53;;
67902;SDS011;54708;43.612;1.568;2023-01-10T05:54:24;20.02;;;4.32;;
67902;SDS011;54708;43.612;1.568;2023-01-10T05:56:49;14.60;;;3.22;;
67902;SDS011;54708;43.612;1.568;2023-01-10T05:59:15;17.02;;;3.90;;
67902;SDS011;54708;43.612;1.568;2023-01-10T06:01:40;11.90;;;4.28;;
67902;SDS011;54708;43.612;1.568;2023-01-10T06:04:05;10.52;;;3.63;;
67902;SDS011;54708;43.612;1.568;2023-01-10T06:06:31;22.83;;;3.90;;
67902;SDS011;54708;43.612;1.568;2023-01-10T06:08:58;12.10;;;3.05;;
67902;SDS011;54708;43.612;1.568;2023-01-10T06:11:24;19.42;;;4.47;;
67902;SDS011;54708;43.612;1.568;2023-01-10T06:13:54;15.80;;;3.70;;
67902;SDS011;54708;43.612;1.568;2023-01-10T06:16:22;10.32;;;4.30;;
67902;SDS011;54708;43.612;1.568;2023-01-10T06:18:48;14.00;;;3.90;;
67902;SDS011;54708;43.612;1.568;2023-01-10T06:21:13;20.58;;;4.57;;
67902;SDS011;54708;43.612;1.568;2023-01-10T06:23:39;14.95;;;3.25;;
67902;SDS011;54708;43.612;1.568;2023-01-10T06:26:04;19.63;;;4.03;;
67902;SDS011;54708;43.612;1.568;2023-01-10T06:28:30;12.80;;;3.53;;
67902;SDS011;54708;43.612;1.568;2023-01-10T06:30:55;13.95;;;3.78;;
67902;SDS011;54708;43.612;1.568;2023-01-10T06:33:20;11.77;;;3.85;;
67902;SDS011;54708;43.612;1.568;2023-01-10T06:35:46;8.93;;;3.70;;
67902;SDS011;54708;43.612;1.568;2023-01-10T06:38:12;19.30;;;4.10;;
67902;SDS011;54708;43.612;1.568;2023-01-10T06:40:38;14.73;;;3.30;;
67902;SDS011;54708;43.612;1.568;2023-01-10T06:43:04;8.73;;;2.75;;
67902;SDS011;54708;43.612;1.568;2023-01-10T06:45:29;19.13;;;4.18;;
67902;SDS011;54708;43.612;1.568;2023-01-10T06:47:55;16.38;;;3.55;;
67902;SDS011;54708;43.612;1.568;2023-01-10T06:50:20;13.55;;;3.15;;
67902;SDS011;54708;43.612;1.568;2023-01-10T06:52:45;14.73;;;3.72;;
67902;SDS011;54708;43.612;1.568;2023-01-10T06:55:19;19.05;;;4.35;;
67902;SDS011;54708;43.612;1.568;2023-01-10T06:57:44;18.20;;;5.20;;
67902;SDS011;54708;43.612;1.568;2023-01-10T07:00:10;13.77;;;5.68;;
67902;SDS011;54708;43.612;1.568;2023-01-10T07:02:35;16.08;;;5.60;;
67902;SDS011;54708;43.612;1.568;2023-01-10T07:05:01;13.52;;;5.53;;
67902;SDS011;54708;43.612;1.568;2023-01-10T07:07:26;19.08;;;5.40;;
67902;SDS011;54708;43.612;1.568;2023-01-10T07:09:52;13.38;;;4.00;;
67902;SDS011;54708;43.612;1.568;2023-01-10T07:12:17;28.52;;;11.52;;
67902;SDS011;54708;43.612;1.568;2023-01-10T07:14:43;33.47;;;18.60;;
67902;SDS011;54708;43.612;1.568;2023-01-10T07:17:08;41.55;;;13.23;;
67902;SDS011;54708;43.612;1.568;2023-01-10T07:19:34;25.92;;;11.02;;
67902;SDS011;54708;43.612;1.568;2023-01-10T07:21:59;23.45;;;10.32;;
67902;SDS011;54708;43.612;1.568;2023-01-10T07:24:24;21.40;;;9.25;;
67902;SDS011;54708;43.612;1.568;2023-01-10T07:26:53;20.17;;;8.65;;
67902;SDS011;54708;43.612;1.568;2023-01-10T07:29:19;23.58;;;6.72;;
67902;SDS011;54708;43.612;1.568;2023-01-10T07:31:44;11.70;;;5.45;;
67902;SDS011;54708;43.612;1.568;2023-01-10T07:34:09;23.65;;;5.10;;
67902;SDS011;54708;43.612;1.568;2023-01-10T07:36:35;19.35;;;5.55;;
67902;SDS011;54708;43.612;1.568;2023-01-10T07:39:02;14.98;;;5.90;;
67902;SDS011;54708;43.612;1.568;2023-01-10T07:41:27;13.20;;;5.13;;
67902;SDS011;54708;43.612;1.568;2023-01-10T07:43:53;16.33;;;6.10;;
67902;SDS011;54708;43.612;1.568;2023-01-10T07:46:18;17.13;;;5.85;;
67902;SDS011;54708;43.612;1.568;2023-01-10T07:48:44;19.88;;;6.47;;
67902;SDS011;54708;43.612;1.568;2023-01-10T07:51:10;18.00;;;7.50;;
67902;SDS011;54708;43.612;1.568;2023-01-10T07:53:36;14.77;;;6.57;;
67902;SDS011;54708;43.612;1.568;2023-01-10T07:56:03;12.18;;;6.30;;
67902;SDS011;54708;43.612;1.568;2023-01-10T07:58:29;14.15;;;5.97;;
67902;SDS011;54708;43.612;1.568;2023-01-10T08:00:58;17.95;;;7.10;;
67902;SDS011;54708;43.612;1.568;2023-01-10T08:03:24;16.98;;;7.25;;
67902;SDS011;54708;43.612;1.568;2023-01-10T08:05:55;52.95;;;18.98;;
67902;SDS011;54708;43.612;1.568;2023-01-10T08:08:22;47.65;;;15.95;;
67902;SDS011;54708;43.612;1.568;2023-01-10T08:10:47;69.05;;;29.35;;
67902;SDS011;54708;43.612;1.568;2023-01-10T08:13:13;49.70;;;22.73;;
67902;SDS011;54708;43.612;1.568;2023-01-10T08:15:38;48.63;;;19.92;;
67902;SDS011;54708;43.612;1.568;2023-01-10T08:18:03;38.08;;;14.00;;
67902;SDS011;54708;43.612;1.568;2023-01-10T08:20:29;27.35;;;11.52;;
67902;SDS011;54708;43.612;1.568;2023-01-10T08:22:58;25.65;;;11.00;;
67902;SDS011;54708;43.612;1.568;2023-01-10T08:25:24;43.35;;;14.15;;
67902;SDS011;54708;43.612;1.568;2023-01-10T08:27:50;28.58;;;11.85;;
67902;SDS011;54708;43.612;1.568;2023-01-10T08:30:15;29.15;;;10.75;;
67902;SDS011;54708;43.612;1.568;2023-01-10T08:32:41;28.02;;;9.48;;
67902;SDS011;54708;43.612;1.568;2023-01-10T08:35:06;21.83;;;10.40;;
67902;SDS011;54708;43.612;1.568;2023-01-10T08:37:32;19.02;;;7.90;;
67902;SDS011;54708;43.612;1.568;2023-01-10T08:39:59;16.17;;;4.88;;
67902;SDS011;54708;43.612;1.568;2023-01-10T08:42:24;10.55;;;4.47;;
67902;SDS011;54708;43.612;1.568;2023-01-10T08:44:50;10.10;;;4.05;;
67902;SDS011;54708;43.612;1.568;2023-01-10T08:47:15;9.60;;;3.67;;
67902;SDS011;54708;43.612;1.568;2023-01-10T08:49:40;15.93;;;4.82;;
67902;SDS011;54708;43.612;1.568;2023-01-10T08:52:06;14.13;;;5.05;;
67902;SDS011;54708;43.612;1.568;2023-01-10T08:54:31;13.93;;;4.25;;
67902;SDS011;54708;43.612;1.568;2023-01-10T08:56:57;12.75;;;3.10;;
67902;SDS011;54708;43.612;1.568;2023-01-10T08:59:23;14.98;;;4.03;;
67902;SDS011;54708;43.612;1.568;2023-01-10T09:01:48;11.70;;;3.40;;
67902;SDS011;54708;43.612;1.568;2023-01-10T09:04:14;24.75;;;5.15;;
67902;SDS011;54708;43.612;1.568;2023-01-10T09:06:39;13.43;;;4.25;;
67902;SDS011;54708;43.612;1.568;2023-01-10T09:09:05;14.70;;;4.15;;
67902;SDS011;54708;43.612;1.568;2023-01-10T09:11:30;10.48;;;3.17;;
67902;SDS011;54708;43.612;1.568;2023-01-10T09:13:55;14.68;;;4.22;;
67902;SDS011;54708;43.612;1.568;2023-01-10T09:16:21;7.65;;;3.10;;
67902;SDS011;54708;43.612;1.568;2023-01-10T09:18:47;9.40;;;3.72;;
67902;SDS011;54708;43.612;1.568;2023-01-10T09:21:13;7.13;;;3.72;;
67902;SDS011;54708;43.612;1.568;2023-01-10T09:23:38;10.00;;;3.67;;
67902;SDS011;54708;43.612;1.568;2023-01-10T09:26:04;11.25;;;3.42;;
67902;SDS011;54708;43.612;1.568;2023-01-10T09:28:30;9.90;;;3.40;;
67902;SDS011;54708;43.612;1.568;2023-01-10T09:30:55;8.52;;;3.33;;
67902;SDS011;54708;43.612;1.568;2023-01-10T09:33:20;10.85;;;4.07;;
67902;SDS011;54708;43.612;1.568;2023-01-10T09:35:46;9.07;;;3.70;;
67902;SDS011;54708;43.612;1.568;2023-01-10T09:38:12;15.85;;;4.32;;
67902;SDS011;54708;43.612;1.568;2023-01-10T09:46:09;8.90;;;2.95;;
67902;SDS011;54708;43.612;1.568;2023-01-10T09:51:37;11.02;;;2.50;;
67902;SDS011;54708;43.612;1.568;2023-01-10T09:54:09;10.05;;;3.38;;
67902;SDS011;54708;43.612;1.568;2023-01-10T09:56:36;9.30;;;3.58;;
67902;SDS011;54708;43.612;1.568;2023-01-10T09:59:01;6.63;;;3.15;;
67902;SDS011;54708;43.612;1.568;2023-01-10T10:01:33;10.65;;;3.78;;
67902;SDS011;54708;43.612;1.568;2023-01-10T10:04:06;9.88;;;3.03;;
67902;SDS011;54708;43.612;1.568;2023-01-10T10:06:52;15.80;;;3.90;;
67902;SDS011;54708;43.612;1.568;2023-01-10T10:09:20;13.32;;;3.00;;
67902;SDS011;54708;43.612;1.568;2023-01-10T10:14:23;14.35;;;2.80;;
67902;SDS011;54708;43.612;1.568;2023-01-10T10:17:05;11.05;;;3.30;;
67902;SDS011;54708;43.612;1.568;2023-01-10T10:19:46;4.95;;;2.92;;
67902;SDS011;54708;43.612;1.568;2023-01-10T10:22:40;9.45;;;3.22;;
67902;SDS011;54708;43.612;1.568;2023-01-10T10:34:12;7.50;;;3.25;;
67902;SDS011;54708;43.612;1.568;2023-01-10T10:36:45;7.95;;;3.20;;
67902;SDS011;54708;43.612;1.568;2023-01-10T10:39:15;6.45;;;2.67;;
67902;SDS011;54708;43.612;1.568;2023-01-10T10:41:44;6.72;;;3.50;;
67902;SDS011;54708;43.612;1.568;2023-01-10T10:44:35;12.95;;;3.08;;
67902;SDS011;54708;43.612;1.568;2023-01-10T10:47:00;8.93;;;3.60;;
67902;SDS011;54708;43.612;1.568;2023-01-10T10:49:34;9.98;;;4.10;;
67902;SDS011;54708;43.612;1.568;2023-01-10T10:52:02;11.20;;;3.67;;
67902;SDS011;54708;43.612;1.568;2023-01-10T10:54:45;6.50;;;2.92;;
67902;SDS011;54708;43.612;1.568;2023-01-10T10:57:10;6.68;;;2.92;;
67902;SDS011;54708;43.612;1.568;2023-01-10T10:59:36;5.53;;;2.40;;
67902;SDS011;54708;43.612;1.568;2023-01-10T11:02:02;3.80;;;2.50;;
67902;SDS011;54708;43.612;1.568;2023-01-10T11:04:27;6.88;;;2.22;;
67902;SDS011;54708;43.612;1.568;2023-01-10T11:06:55;7.85;;;2.70;;
67902;SDS011;54708;43.612;1.568;2023-01-10T11:09:21;10.05;;;2.25;;
67902;SDS011;54708;43.612;1.568;2023-01-10T11:11:57;8.25;;;3.00;;
67902;SDS011;54708;43.612;1.568;2023-01-10T11:14:39;13.07;;;4.15;;
67902;SDS011;54708;43.612;1.568;2023-01-10T11:17:24;11.75;;;3.03;;
67902;SDS011;54708;43.612;1.568;2023-01-10T11:19:55;7.57;;;2.67;;
67902;SDS011;54708;43.612;1.568;2023-01-10T11:22:24;8.30;;;3.08;;
67902;SDS011;54708;43.612;1.568;2023-01-10T11:24:53;7.90;;;2.35;;
67902;SDS011;54708;43.612;1.568;2023-01-10T11:27:23;6.20;;;2.50;;
67902;SDS011;54708;43.612;1.568;2023-01-10T11:29:51;7.57;;;2.75;;
67902;SDS011;54708;43.612;1.568;2023-01-10T11:32:21;9.65;;;2.50;;
67902;SDS011;54708;43.612;1.568;2023-01-10T11:34:52;6.78;;;2.63;;
67902;SDS011;54708;43.612;1.568;2023-01-10T11:37:23;14.75;;;3.55;;
67902;SDS011;54708;43.612;1.568;2023-01-10T11:42:49;11.80;;;2.10;;
67902;SDS011;54708;43.612;1.568;2023-01-10T11:47:45;11.77;;;3.63;;
67902;SDS011;54708;43.612;1.568;2023-01-10T11:50:15;9.45;;;2.90;;
67902;SDS011;54708;43.612;1.568;2023-01-10T11:52:44;4.93;;;2.70;;
67902;SDS011;54708;43.612;1.568;2023-01-10T11:55:16;17.50;;;10.02;;
67902;SDS011;54708;43.612;1.568;2023-01-10T11:57:44;18.17;;;10.00;;
67902;SDS011;54708;43.612;1.568;2023-01-10T12:00:10;10.27;;;3.65;;
67902;SDS011;54708;43.612;1.568;2023-01-10T12:02:40;10.23;;;3.47;;
67902;SDS011;54708;43.612;1.568;2023-01-10T12:05:08;10.32;;;3.13;;
67902;SDS011;54708;43.612;1.568;2023-01-10T12:10:30;8.77;;;3.38;;
67902;SDS011;54708;43.612;1.568;2023-01-10T12:12:58;8.52;;;3.30;;
67902;SDS011;54708;43.612;1.568;2023-01-10T12:15:30;5.53;;;3.13;;
67902;SDS011;54708;43.612;1.568;2023-01-10T12:17:58;8.40;;;3.50;;
67902;SDS011;54708;43.612;1.568;2023-01-10T12:20:26;6.40;;;3.60;;
67902;SDS011;54708;43.612;1.568;2023-01-10T12:22:54;11.88;;;3.17;;
67902;SDS011;54708;43.612;1.568;2023-01-10T12:27:57;14.27;;;2.90;;
67902;SDS011;54708;43.612;1.568;2023-01-10T12:30:33;10.35;;;3.97;;
67902;SDS011;54708;43.612;1.568;2023-01-10T12:33:17;11.85;;;3.58;;
67902;SDS011;54708;43.612;1.568;2023-01-10T12:41:33;10.65;;;3.05;;
67902;SDS011;54708;43.612;1.568;2023-01-10T12:44:23;10.68;;;3.10;;
67902;SDS011;54708;43.612;1.568;2023-01-10T12:46:56;11.10;;;2.88;;
67902;SDS011;54708;43.612;1.568;2023-01-10T12:51:51;10.20;;;3.53;;
67902;SDS011;54708;43.612;1.568;2023-01-10T12:54:19;12.20;;;2.97;;
67902;SDS011;54708;43.612;1.568;2023-01-10T12:56:46;6.78;;;3.58;;
67902;SDS011;54708;43.612;1.568;2023-01-10T13:01:53;6.80;;;3.30;;
67902;SDS011;54708;43.612;1.568;2023-01-10T13:04:21;13.20;;;3.25;;
67902;SDS011;54708;43.612;1.568;2023-01-10T13:06:48;7.10;;;2.90;;
67902;SDS011;54708;43.612;1.568;2023-01-10T13:09:24;8.75;;;3.17;;
67902;SDS011;54708;43.612;1.568;2023-01-10T13:12:03;6.88;;;3.03;;
67902;SDS011;54708;43.612;1.568;2023-01-10T13:14:31;11.93;;;3.25;;
67902;SDS011;54708;43.612;1.568;2023-01-10T13:22:53;7.00;;;2.67;;
67902;SDS011;54708;43.612;1.568;2023-01-10T13:25:24;11.57;;;2.78;;
67902;SDS011;54708;43.612;1.568;2023-01-10T13:27:54;7.13;;;2.47;;
67902;SDS011;54708;43.612;1.568;2023-01-10T13:30:27;8.63;;;2.50;;
67902;SDS011;54708;43.612;1.568;2023-01-10T13:33:39;12.82;;;3.05;;
67902;SDS011;54708;43.612;1.568;2023-01-10T13:35:46;11.68;;;2.65;;
67902;SDS011;54708;43.612;1.568;2023-01-10T13:38:20;9.43;;;3.08;;
67902;SDS011;54708;43.612;1.568;2023-01-10T13:41:01;5.35;;;2.60;;
67902;SDS011;54708;43.612;1.568;2023-01-10T13:46:43;8.15;;;2.92;;
67902;SDS011;54708;43.612;1.568;2023-01-10T13:51:15;7.47;;;2.72;;
67902;SDS011;54708;43.612;1.568;2023-01-10T13:53:44;9.52;;;2.72;;
67902;SDS011;54708;43.612;1.568;2023-01-10T13:56:28;10.73;;;3.13;;
67902;SDS011;54708;43.612;1.568;2023-01-10T13:58:55;10.93;;;3.33;;
67902;SDS011;54708;43.612;1.568;2023-01-10T14:01:39;7.97;;;2.63;;
67902;SDS011;54708;43.612;1.568;2023-01-10T14:04:27;9.20;;;2.47;;
67902;SDS011;54708;43.612;1.568;2023-01-10T14:07:03;10.23;;;3.28;;
67902;SDS011;54708;43.612;1.568;2023-01-10T14:10:19;7.95;;;3.22;;
67902;SDS011;54708;43.612;1.568;2023-01-10T14:12:39;12.88;;;4.10;;
67902;SDS011;54708;43.612;1.568;2023-01-10T14:17:59;6.80;;;3.10;;
67902;SDS011;54708;43.612;1.568;2023-01-10T14:20:26;12.68;;;2.70;;
67902;SDS011;54708;43.612;1.568;2023-01-10T14:22:56;10.50;;;2.90;;
67902;SDS011;54708;43.612;1.568;2023-01-10T14:25:27;8.52;;;3.67;;
67902;SDS011;54708;43.612;1.568;2023-01-10T14:27:53;5.95;;;2.90;;
67902;SDS011;54708;43.612;1.568;2023-01-10T14:30:30;12.18;;;2.92;;
67902;SDS011;54708;43.612;1.568;2023-01-10T14:33:19;10.52;;;4.30;;
67902;SDS011;54708;43.612;1.568;2023-01-10T14:35:44;7.13;;;3.70;;
67902;SDS011;54708;43.612;1.568;2023-01-10T14:38:33;5.40;;;2.50;;
67902;SDS011;54708;43.612;1.568;2023-01-10T14:40:59;6.32;;;2.65;;
67902;SDS011;54708;43.612;1.568;2023-01-10T14:43:30;9.23;;;2.80;;
67902;SDS011;54708;43.612;1.568;2023-01-10T14:46:02;8.73;;;2.95;;
67902;SDS011;54708;43.612;1.568;2023-01-10T14:48:31;6.90;;;2.72;;
67902;SDS011;54708;43.612;1.568;2023-01-10T14:53:36;7.22;;;2.55;;
67902;SDS011;54708;43.612;1.568;2023-01-10T14:56:01;6.13;;;2.72;;
67902;SDS011;54708;43.612;1.568;2023-01-10T14:58:27;9.75;;;3.30;;
67902;SDS011;54708;43.612;1.568;2023-01-10T15:00:52;5.90;;;3.33;;
67902;SDS011;54708;43.612;1.568;2023-01-10T15:03:20;8.55;;;2.40;;
67902;SDS011;54708;43.612;1.568;2023-01-10T15:05:48;7.90;;;3.55;;
67902;SDS011;54708;43.612;1.568;2023-01-10T15:08:18;9.55;;;3.55;;
67902;SDS011;54708;43.612;1.568;2023-01-10T15:10:48;5.82;;;2.47;;
67902;SDS011;54708;43.612;1.568;2023-01-10T15:13:16;7.15;;;2.78;;
67902;SDS011;54708;43.612;1.568;2023-01-10T15:15:44;9.30;;;2.97;;
67902;SDS011;54708;43.612;1.568;2023-01-10T15:18:56;6.45;;;2.92;;
67902;SDS011;54708;43.612;1.568;2023-01-10T15:21:04;7.72;;;3.35;;
67902;SDS011;54708;43.612;1.568;2023-01-10T15:23:37;6.68;;;2.55;;
67902;SDS011;54708;43.612;1.568;2023-01-10T15:26:13;8.32;;;3.25;;
67902;SDS011;54708;43.612;1.568;2023-01-10T15:31:37;8.25;;;2.63;;
67902;SDS011;54708;43.612;1.568;2023-01-10T15:34:07;7.63;;;2.60;;
67902;SDS011;54708;43.612;1.568;2023-01-10T15:36:33;7.10;;;2.67;;
67902;SDS011;54708;43.612;1.568;2023-01-10T15:38:59;8.80;;;2.85;;
67902;SDS011;54708;43.612;1.568;2023-01-10T15:41:24;6.32;;;2.60;;
67902;SDS011;54708;43.612;1.568;2023-01-10T15:43:50;7.13;;;3.22;;
67902;SDS011;54708;43.612;1.568;2023-01-10T15:46:21;9.05;;;2.50;;
67902;SDS011;54708;43.612;1.568;2023-01-10T15:48:55;5.05;;;1.98;;
67902;SDS011;54708;43.612;1.568;2023-01-10T15:57:02;6.75;;;2.22;;
67902;SDS011;54708;43.612;1.568;2023-01-10T15:59:33;8.32;;;2.30;;
67902;SDS011;54708;43.612;1.568;2023-01-10T16:04:46;6.10;;;2.70;;
67902;SDS011;54708;43.612;1.568;2023-01-10T16:07:27;7.80;;;2.47;;
67902;SDS011;54708;43.612;1.568;2023-01-10T16:10:00;8.13;;;3.55;;
67902;SDS011;54708;43.612;1.568;2023-01-10T16:15:23;7.38;;;2.60;;
67902;SDS011;54708;43.612;1.568;2023-01-10T16:17:50;11.07;;;3.25;;
67902;SDS011;54708;43.612;1.568;2023-01-10T16:20:17;9.60;;;3.55;;
67902;SDS011;54708;43.612;1.568;2023-01-10T16:22:44;12.90;;;3.83;;
67902;SDS011;54708;43.612;1.568;2023-01-10T16:25:14;8.23;;;2.80;;
67902;SDS011;54708;43.612;1.568;2023-01-10T16:27:42;7.90;;;2.88;;
67902;SDS011;54708;43.612;1.568;2023-01-10T16:30:19;15.07;;;3.97;;
67902;SDS011;54708;43.612;1.568;2023-01-10T16:32:47;11.75;;;4.50;;
67902;SDS011;54708;43.612;1.568;2023-01-10T16:35:12;12.57;;;5.25;;
67902;SDS011;54708;43.612;1.568;2023-01-10T16:37:40;10.38;;;5.20;;